createdAt,value
2017-03-23T06:47:35.724Z,10.62
2017-03-23T06:48:44.522Z,10.23
2017-03-23T06:49:51.167Z,10.14
2017-03-23T06:51:00.811Z,10.42
2017-03-23T06:52:07.858Z,10.14
2017-03-23T08:22:10.494Z,3.58
2017-03-23T10:27:03.830Z,5.90
2017-03-23T10:29:24.246Z,8.04
2017-03-23T10:30:25.765Z,25.52
2017-03-23T10:31:27.308Z,40.45
2017-03-23T10:32:28.921Z,46.78
2017-03-23T10:33:30.845Z,50.19
2017-03-23T10:34:32.509Z,52.11
2017-03-23T10:35:34.237Z,52.77
2017-03-23T10:36:35.904Z,52.77
2017-03-23T10:37:37.676Z,53.31
2017-03-23T10:38:39.376Z,54.10
2017-03-23T10:39:41.215Z,54.00
2017-03-23T10:40:42.921Z,53.91
2017-03-23T10:41:44.723Z,54.67
2017-03-23T10:42:46.525Z,54.57
2017-03-23T10:43:48.455Z,54.86
2017-03-23T10:44:50.198Z,54.67
2017-03-23T10:45:52.020Z,55.14
2017-03-23T10:46:53.892Z,55.11
2017-03-23T10:47:55.646Z,54.64
2017-03-23T10:48:57.460Z,55.21
2017-03-23T10:49:59.177Z,54.16
2017-03-23T10:51:00.800Z,53.03
2017-03-23T10:52:02.604Z,52.84
2017-03-23T10:53:04.304Z,52.84
2017-03-23T10:54:06.071Z,52.37
2017-03-23T10:55:07.774Z,50.76
2017-03-23T10:56:09.424Z,50.85
2017-03-23T10:57:11.152Z,50.28
2017-03-23T10:58:13.003Z,49.90
2017-03-23T10:59:14.786Z,50.40
2017-03-23T11:00:16.506Z,48.96
2017-03-23T11:01:18.229Z,48.60
2017-03-23T11:02:20.161Z,48.79
2017-03-23T11:03:21.978Z,48.20
2017-03-23T11:04:23.688Z,47.53
2017-03-23T11:05:25.554Z,48.32
2017-03-23T11:06:27.345Z,48.32
2017-03-23T11:07:29.052Z,48.70
2017-03-23T11:08:30.793Z,48.41
2017-03-23T11:09:32.620Z,47.66
2017-03-23T11:10:34.403Z,48.32
2017-03-23T11:11:36.182Z,48.79
2017-03-23T11:12:37.823Z,48.22
2017-03-23T11:13:40.229Z,47.18
2017-03-23T11:14:41.869Z,47.75
2017-03-23T11:15:43.639Z,47.75
2017-03-23T11:16:45.453Z,47.94
2017-03-23T11:17:47.189Z,47.75
2017-03-23T11:18:48.978Z,47.28
2017-03-23T11:19:50.947Z,47.18
2017-03-23T11:20:52.722Z,48.03
2017-03-23T11:21:54.548Z,47.85
2017-03-23T11:22:56.360Z,47.09
2017-03-23T11:23:57.998Z,47.66
2017-03-23T11:24:59.723Z,46.80
2017-03-23T11:26:01.499Z,46.80
2017-03-23T11:27:03.156Z,47.37
2017-03-23T11:28:04.909Z,47.66
2017-03-23T11:29:06.624Z,47.09
2017-03-23T11:30:08.479Z,46.71
2017-03-23T11:31:10.218Z,46.90
2017-03-23T11:32:11.956Z,46.61
2017-03-23T11:33:13.635Z,46.61
2017-03-23T11:34:15.378Z,46.80
2017-03-23T11:35:17.145Z,46.61
2017-03-23T11:36:18.816Z,47.09
2017-03-23T11:37:20.542Z,47.09
2017-03-23T11:38:22.389Z,47.18
2017-03-23T11:39:24.094Z,47.18
2017-03-23T11:40:25.864Z,46.71
2017-03-23T11:41:27.525Z,47.09
2017-03-23T11:42:29.189Z,48.22
2017-03-23T11:43:30.947Z,48.22
2017-03-23T11:44:32.578Z,48.70
2017-03-23T11:45:34.431Z,48.79
2017-03-23T11:46:36.269Z,49.55
2017-03-23T11:47:37.902Z,48.98
2017-03-23T11:48:39.619Z,49.27
2017-03-23T11:49:41.317Z,48.32
2017-03-23T11:50:42.941Z,48.89
2017-03-23T11:51:44.649Z,48.89
2017-03-23T11:52:46.285Z,49.36
2017-03-23T11:53:48.044Z,48.70
2017-03-23T11:54:49.677Z,48.51
2017-03-23T11:55:51.383Z,48.79
2017-03-23T11:56:53.063Z,48.03
2017-03-23T11:57:54.846Z,47.30
2017-03-23T11:58:56.538Z,46.54
2017-03-23T11:59:58.201Z,45.97
2017-03-23T12:00:59.987Z,45.48
2017-03-23T12:02:01.753Z,45.48
2017-03-23T12:03:03.463Z,46.33
2017-03-23T12:04:05.209Z,46.52
2017-03-23T12:05:06.955Z,46.23
2017-03-23T12:06:08.650Z,46.14
2017-03-23T12:07:10.486Z,45.95
2017-03-23T12:08:12.185Z,45.95
2017-03-23T12:09:13.995Z,45.67
2017-03-23T12:10:15.765Z,46.71
2017-03-23T12:11:17.579Z,46.52
2017-03-23T12:12:19.259Z,47.94
2017-03-23T12:13:21.113Z,47.75
2017-03-23T12:14:22.727Z,47.18
2017-03-23T12:15:24.591Z,47.09
2017-03-23T12:16:26.440Z,47.18
2017-03-23T12:17:28.350Z,47.66
2017-03-23T12:18:30.215Z,48.70
2017-03-23T12:19:31.931Z,48.89
2017-03-23T12:20:33.690Z,49.29
2017-03-23T12:21:35.522Z,48.70
2017-03-23T12:22:37.330Z,48.70
2017-03-23T12:23:39.050Z,48.60
2017-03-23T12:24:40.898Z,48.32
2017-03-23T12:25:42.696Z,48.03
2017-03-23T12:26:44.427Z,48.34
2017-03-23T12:27:46.158Z,47.66
2017-03-23T12:28:47.867Z,47.66
2017-03-23T12:29:49.582Z,47.75
2017-03-23T12:30:51.230Z,48.79
2017-03-23T12:31:53.049Z,48.79
